Погода Карасна 2 недели

Карас, Намибия

01 - 14 марта
  • 01марта
    Сегодня
    +22°
    +38°
    Ясно и безоблачно
    ВремяПогодаТемператураВлажностьДавлениеВетер, м/сВероятность осадков
    02:00Ясно и безоблачно+25°C34 %678 мм2.9 м/с5 %
    05:00Ясно и безоблачно+22°C42 %677 мм1.8 м/с5 %
    08:00Ясно и безоблачно+24°C35 %678 мм1.7 м/с5 %
    11:00Ясно и безоблачно+31°C20 %679 мм1.3 м/с5 %
    14:00Ясно и безоблачно+37°C13 %679 мм2.4 м/с5 %
    17:00Практически безоблачно+38°C11 %678 мм2.1 м/с5 %
    20:00Практически безоблачно+35°C15 %678 мм5.4 м/с1 %
    23:00Ясно и безоблачно+29°C30 %679 мм1.9 м/с2 %
  • 02марта
    Суббота
    +20°
    +37°
    Практически безоблачно
    ВремяПогодаТемператураВлажностьДавлениеВетер, м/сВероятность осадков
    02:00Ясно и безоблачно+27°C34 %679 мм2.7 м/с3 %
    05:00Ясно и безоблачно+25°C31 %678 мм1.9 м/с2 %
    08:00Ясно и безоблачно+24°C30 %679 мм0.9 м/с2 %
    11:00Практически безоблачно+31°C22 %680 мм0.5 м/с5 %
    14:00Практически безоблачно+36°C18 %679 мм1.9 м/с4 %
    17:00Пасмурно, сплошная облачность+29°C36 %679 мм2.5 м/с40 %
    20:00Пасмурно, ливень+28°C45 %678 мм3.8 м/с26 %
    23:00Небольшая облачность+26°C54 %678 мм2.5 м/с4 %
  • 03марта
    Воскресенье
    +16°
    +37°
    Ясно и безоблачно
    ВремяПогодаТемператураВлажностьДавлениеВетер, м/сВероятность осадков
    02:00Ясно и безоблачно+23°C58 %677 мм2.4 м/с2 %
    05:00Ясно и безоблачно+21°C63 %676 мм2.7 м/с3 %
    08:00Ясно и безоблачно+22°C57 %678 мм2.1 м/с4 %
    11:00Ясно и безоблачно+31°C28 %679 мм2.8 м/с2 %
    14:00Ясно и безоблачно+37°C12 %678 мм6.3 м/с4 %
    17:00Ясно и безоблачно+36°C11 %677 мм7.4 м/с4 %
    20:00Ясно и безоблачно+31°C24 %677 мм6.0 м/с3 %
    23:00Практически безоблачно+25°C28 %676 мм5.8 м/с6 %
  • 04марта
    Понедельник
    +11°
    +33°
    Практически безоблачно
    ВремяПогодаТемператураВлажностьДавлениеВетер, м/сВероятность осадков
    02:00Небольшая облачность+22°C43 %675 мм2.7 м/с5 %
    05:00Ясно и безоблачно+19°C60 %675 мм3.3 м/с5 %
    08:00Небольшая облачность+18°C68 %676 мм0.9 м/с5 %
    11:00Практически безоблачно+25°C29 %677 мм0.9 м/с5 %
    14:00Практически безоблачно+33°C9 %676 мм7.7 м/с5 %
    17:00Ясно и безоблачно+31°C14 %675 мм7.9 м/с5 %
    20:00Ясно и безоблачно+26°C36 %676 мм5.9 м/с5 %
    23:00Ясно и безоблачно+19°C54 %678 мм6.3 м/с5 %
  • 05марта
    Вторник
    +14°
    +30°
    Ясно и безоблачно
    ВремяПогодаТемператураВлажностьДавлениеВетер, м/сВероятность осадков
    02:00Облачно с прояснениями+16°C55 %677 мм5.1 м/с5 %
    05:00Практически безоблачно+13°C77 %677 мм3.8 м/с5 %
    08:00Ясно и безоблачно+13°C74 %678 мм1.6 м/с5 %
    11:00Ясно и безоблачно+18°C37 %678 мм1.9 м/с5 %
    14:00Ясно и безоблачно+27°C18 %678 мм1.6 м/с5 %
    17:00Ясно и безоблачно+30°C14 %676 мм3.9 м/с5 %
    20:00Практически безоблачно+27°C16 %676 мм4.7 м/с5 %
    23:00Ясно и безоблачно+23°C16 %677 мм4.8 м/с5 %
Мы используем cookies
Соглашаюсь